Time;durP1;ratioP1;P1;durP2;ratioP2;P2;SDS_P1;SDS_P2;PMS_P1;PMS_P2;Temp;Humidity;BMP_temperature;BMP_pressure;BME280_temperature;BME280_humidity;BME280_pressure;Samples;Min_cycle;Max_cycle;Signal;HPM_P1;HPM_P2
2024/01/17 00:02:06;;;;;;;123.70;70.90;;;;;;;-6.63;100.00;98301.02;109160;1255;61189;-76
2024/01/17 00:04:33;;;;;;;121.70;69.00;;;;;;;-6.64;100.00;98296.55;109183;1255;75765;-75
2024/01/17 00:06:59;;;;;;;101.80;60.40;;;;;;;-6.68;100.00;98289.67;109160;1255;70113;-76
2024/01/17 00:09:26;;;;;;;107.40;60.60;;;;;;;-6.76;100.00;98292.00;109146;1255;65251;-74
2024/01/17 00:11:53;;;;;;;109.70;60.40;;;;;;;-6.86;100.00;98290.52;109064;1256;59199;-76
2024/01/17 00:14:19;;;;;;;105.90;59.50;;;;;;;-6.97;100.00;98293.21;109134;1255;60180;-75
2024/01/17 00:16:46;;;;;;;107.40;62.10;;;;;;;-7.09;100.00;98288.81;109150;1255;74546;-74
2024/01/17 00:19:13;;;;;;;115.00;66.40;;;;;;;-7.18;100.00;98286.83;109169;1255;69753;-75
2024/01/17 00:21:39;;;;;;;109.70;63.30;;;;;;;-7.26;100.00;98283.08;108378;1255;1003202;-74
2024/01/17 00:24:06;;;;;;;104.60;60.60;;;;;;;-7.35;100.00;98283.14;108317;1256;1002525;-75
2024/01/17 00:26:32;;;;;;;106.30;62.20;;;;;;;-7.41;100.00;98280.59;109342;1251;61611;-74
2024/01/17 00:28:59;;;;;;;107.00;62.50;;;;;;;-7.45;100.00;98282.00;109288;1251;76089;-76
2024/01/17 00:31:26;;;;;;;126.20;68.20;;;;;;;-7.47;100.00;98278.73;109535;1251;70000;-75
2024/01/17 00:33:53;;;;;;;106.40;63.00;;;;;;;-7.43;100.00;98281.66;109441;1251;73089;-75
2024/01/17 00:36:19;;;;;;;119.60;66.20;;;;;;;-7.44;100.00;98280.10;108709;1251;1002105;-75
2024/01/17 00:38:46;;;;;;;114.40;62.80;;;;;;;-7.48;100.00;98279.27;109504;1251;60247;-73
2024/01/17 00:41:13;;;;;;;121.10;64.60;;;;;;;-7.53;100.00;98277.05;109463;1251;76474;-76
2024/01/17 00:43:39;;;;;;;114.20;63.90;;;;;;;-7.58;100.00;98278.11;109457;1251;67439;-76
2024/01/17 00:46:06;;;;;;;118.10;64.10;;;;;;;-7.62;100.00;98278.66;109496;1251;72794;-75
2024/01/17 00:48:32;;;;;;;113.20;64.80;;;;;;;-7.64;100.00;98280.04;108727;1251;1003081;-75
2024/01/17 00:50:59;;;;;;;118.60;69.00;;;;;;;-7.64;100.00;98279.36;109515;1251;61303;-74
2024/01/17 00:53:25;;;;;;;124.40;72.00;;;;;;;-7.64;100.00;98278.32;109497;1251;74317;-75
2024/01/17 00:55:52;;;;;;;118.30;68.60;;;;;;;-7.63;100.00;98276.95;109311;1251;68747;-75
2024/01/17 00:58:19;;;;;;;120.20;68.20;;;;;;;-7.63;100.00;98275.39;109464;1251;73646;-75
2024/01/17 01:00:45;;;;;;;119.00;67.90;;;;;;;-7.65;100.00;98273.86;109483;1251;60544;-75
2024/01/17 01:03:12;;;;;;;115.10;65.60;;;;;;;-7.69;100.00;98268.52;109531;1251;61180;-75
2024/01/17 01:05:39;;;;;;;115.70;63.90;;;;;;;-7.74;100.00;98267.86;109517;1251;74733;-75
2024/01/17 01:08:07;;;;;;;107.90;63.90;;;;;;;-7.78;100.00;98266.33;109477;1253;69620;-75
2024/01/17 01:10:33;;;;;;;105.90;62.30;;;;;;;-7.82;100.00;98266.17;109475;1251;64028;-75
2024/01/17 01:13:00;;;;;;;112.80;64.00;;;;;;;-7.87;100.00;98264.14;109144;1255;59023;-75
2024/01/17 01:15:26;;;;;;;110.00;61.90;;;;;;;-7.93;100.00;98266.42;109187;1255;59001;-75
2024/01/17 01:17:53;;;;;;;104.80;61.40;;;;;;;-7.98;100.00;98266.27;108401;1256;1002566;-75
2024/01/17 01:20:20;;;;;;;110.80;61.50;;;;;;;-8.02;100.00;98264.04;109152;1256;59676;-75
2024/01/17 01:22:46;;;;;;;109.80;60.00;;;;;;;-8.07;100.00;98263.73;109154;1255;59551;-74
2024/01/17 01:25:13;;;;;;;114.50;63.90;;;;;;;-8.07;100.00;98260.10;109141;1255;59543;-75
2024/01/17 01:27:39;;;;;;;111.70;62.50;;;;;;;-8.04;100.00;98253.88;109166;1255;61360;-74
2024/01/17 01:30:07;;;;;;;101.50;61.30;;;;;;;-8.04;100.00;98248.71;109165;1255;67167;-75
2024/01/17 01:32:33;;;;;;;113.40;63.30;;;;;;;-8.04;100.00;98250.95;109157;1256;68377;-75
2024/01/17 01:35:00;;;;;;;111.60;60.60;;;;;;;-8.07;100.00;98251.48;109122;1256;72549;-75
2024/01/17 01:37:26;;;;;;;103.40;59.70;;;;;;;-8.14;100.00;98248.41;109158;1255;59600;-74
2024/01/17 01:39:53;;;;;;;103.30;59.20;;;;;;;-8.20;100.00;98244.99;109170;1256;60301;-75
2024/01/17 01:42:20;;;;;;;107.50;58.30;;;;;;;-8.25;100.00;98237.27;108373;1255;1003092;-75
2024/01/17 01:44:46;;;;;;;101.60;55.40;;;;;;;-8.29;100.00;98237.96;108646;1253;1002333;-74
2024/01/17 01:47:16;;;;;;;96.00;56.10;;;;;;;-8.33;100.00;98234.89;109483;1251;73952;-74
2024/01/17 01:49:43;;;;;;;96.70;55.20;;;;;;;-8.36;100.00;98230.60;109468;1251;59555;-74
2024/01/17 01:52:09;;;;;;;101.40;59.20;;;;;;;-8.41;100.00;98227.20;109494;1251;62032;-75
2024/01/17 01:54:38;;;;;;;99.50;58.30;;;;;;;-8.47;100.00;98227.23;109492;1251;74807;-75
2024/01/17 01:57:05;;;;;;;98.60;54.90;;;;;;;-8.51;100.00;98225.17;109521;1251;68988;-75
2024/01/17 01:59:32;;;;;;;106.50;59.30;;;;;;;-8.54;100.00;98227.42;107901;1251;1002836;-75
2024/01/17 02:01:59;;;;;;;96.40;54.00;;;;;;;-8.54;100.00;98218.11;108718;1253;1002156;-75
2024/01/17 02:04:27;;;;;;;99.20;57.40;;;;;;;-8.51;100.00;98215.52;109515;1251;59106;-75
2024/01/17 02:06:54;;;;;;;100.60;57.20;;;;;;;-8.50;100.00;98218.45;109506;1251;75838;-74
2024/01/17 02:09:22;;;;;;;98.60;56.40;;;;;;;-8.50;100.00;98215.86;108710;1251;1002607;-75
2024/01/17 02:11:49;;;;;;;96.60;53.50;;;;;;;-8.50;100.00;98212.26;109500;1251;73906;-74
2024/01/17 02:14:17;;;;;;;91.50;52.70;;;;;;;-8.51;100.00;98209.48;109473;1251;59593;-75
2024/01/17 02:16:44;;;;;;;80.30;46.70;;;;;;;-8.54;100.00;98206.06;109508;1251;61643;-74
2024/01/17 02:19:15;;;;;;;88.30;50.90;;;;;;;-8.56;100.00;98207.27;109485;1253;76306;-75
2024/01/17 02:21:42;;;;;;;87.90;50.40;;;;;;;-8.60;100.00;98201.44;108729;1251;1002839;-75
2024/01/17 02:24:22;;;;;;;82.10;47.10;;;;;;;-8.60;100.00;98202.11;109535;1251;59109;-75
2024/01/17 02:26:49;;;;;;;80.00;45.70;;;;;;;-8.56;100.00;98204.69;109376;1251;59354;-75
2024/01/17 02:29:16;;;;;;;76.00;46.50;;;;;;;-8.54;100.00;98198.83;109463;1251;61595;-75
2024/01/17 02:31:44;;;;;;;78.70;44.20;;;;;;;-8.46;100.00;98203.45;109509;1253;74361;-76
2024/01/17 02:34:10;;;;;;;71.10;42.70;;;;;;;-8.34;100.00;98199.57;109471;1251;69761;-74
2024/01/17 02:36:37;;;;;;;76.60;46.50;;;;;;;-8.25;100.00;98194.02;109519;1251;73846;-74
2024/01/17 02:39:04;;;;;;;75.70;47.40;;;;;;;-8.18;100.00;98189.34;109444;1251;60075;-74
2024/01/17 02:41:31;;;;;;;75.80;46.20;;;;;;;-8.10;100.00;98177.92;108729;1251;1003094;-74
2024/01/17 02:43:57;;;;;;;69.20;45.70;;;;;;;-8.00;100.00;98171.48;109506;1251;75833;-74
2024/01/17 02:46:27;;;;;;;76.10;44.80;;;;;;;-7.88;100.00;98162.43;109527;1251;69981;-74
2024/01/17 02:48:55;;;;;;;77.00;48.40;;;;;;;-7.79;100.00;98158.41;109475;1251;73787;-74
2024/01/17 02:51:21;;;;;;;74.60;44.60;;;;;;;-7.73;100.00;98145.77;108674;1251;1002894;-75
2024/01/17 02:53:48;;;;;;;74.20;43.70;;;;;;;-7.69;100.00;98143.86;108748;1251;1002661;-74
2024/01/17 02:56:16;;;;;;;74.00;45.20;;;;;;;-7.67;100.00;98150.55;109487;1253;75527;-74
2024/01/17 02:58:43;;;;;;;70.80;42.00;;;;;;;-7.69;100.00;98147.29;109431;1251;67727;-75
2024/01/17 03:01:13;;;;;;;72.90;45.10;;;;;;;-7.73;100.00;98145.94;108704;1251;1002900;-74
2024/01/17 03:03:40;;;;;;;78.40;43.50;;;;;;;-7.75;100.00;98141.64;109511;1251;59396;-75
2024/01/17 03:06:07;;;;;;;75.60;43.40;;;;;;;-7.77;100.00;98139.59;109516;1251;60090;-75
2024/01/17 03:08:33;;;;;;;69.90;42.80;;;;;;;-7.81;100.00;98140.14;109499;1253;73679;-73
2024/01/17 03:11:00;;;;;;;67.80;43.00;;;;;;;-7.82;100.00;98144.29;108710;1252;1002565;-75
2024/01/17 03:13:27;;;;;;;71.80;41.30;;;;;;;-7.83;100.00;98145.67;109507;1251;71400;-75
2024/01/17 03:15:53;;;;;;;66.80;40.00;;;;;;;-7.85;100.00;98146.90;107895;1253;2002334;-74
2024/01/17 03:18:20;;;;;;;70.00;41.50;;;;;;;-7.82;100.00;98141.36;109498;1251;59303;-74
2024/01/17 03:20:46;;;;;;;78.20;42.40;;;;;;;-7.79;100.00;98136.17;109439;1255;73899;-73
2024/01/17 03:23:13;;;;;;;77.50;44.20;;;;;;;-7.80;100.00;98141.52;109223;1251;68707;-75
2024/01/17 03:25:40;;;;;;;65.50;41.60;;;;;;;-7.79;100.00;98137.55;109446;1251;73812;-74
2024/01/17 03:28:06;;;;;;;70.00;44.80;;;;;;;-7.80;100.00;98142.39;107150;1251;2002663;-74
2024/01/17 03:30:34;;;;;;;73.00;45.20;;;;;;;-7.81;100.00;98143.08;107918;1253;2002798;-74
2024/01/17 03:33:00;;;;;;;69.90;42.60;;;;;;;-7.83;100.00;98145.51;109472;1252;75849;-74
2024/01/17 03:35:27;;;;;;;70.10;44.00;;;;;;;-7.83;100.00;98149.30;109510;1251;69563;-74
2024/01/17 03:37:53;;;;;;;62.10;39.40;;;;;;;-7.80;100.00;98147.04;109482;1252;72927;-74
2024/01/17 03:40:20;;;;;;;71.80;43.10;;;;;;;-7.79;100.00;98147.73;107915;1251;2002768;-75
2024/01/17 03:42:47;;;;;;;67.60;41.90;;;;;;;-7.79;100.00;98149.80;108715;1251;1003189;-74
2024/01/17 03:45:13;;;;;;;58.70;38.10;;;;;;;-7.77;100.00;98147.35;109437;1251;72772;-74
2024/01/17 03:47:40;;;;;;;65.60;39.10;;;;;;;-7.74;100.00;98144.57;107955;1253;2002509;-74
2024/01/17 03:50:07;;;;;;;60.90;37.40;;;;;;;-7.70;100.00;98141.27;108711;1251;1002200;-74
2024/01/17 03:52:34;;;;;;;58.00;36.80;;;;;;;-7.64;100.00;98141.91;107769;1251;2002935;-74
2024/01/17 03:55:00;;;;;;;60.50;38.60;;;;;;;-7.58;100.00;98138.74;109508;1251;60369;-74
2024/01/17 03:57:27;;;;;;;63.10;36.20;;;;;;;-7.53;100.00;98132.14;109442;1251;74573;-74
2024/01/17 03:59:54;;;;;;;53.90;34.80;;;;;;;-7.49;100.00;98129.02;107971;1251;2002449;-74
2024/01/17 04:02:21;;;;;;;53.30;33.70;;;;;;;-7.47;100.00;98125.05;107763;1251;2003028;-75
2024/01/17 04:04:47;;;;;;;54.40;34.10;;;;;;;-7.48;100.00;98122.97;109449;1251;59058;-74
2024/01/17 04:07:14;;;;;;;55.70;32.90;;;;;;;-7.47;100.00;98118.48;109502;1252;59034;-74
2024/01/17 04:09:41;;;;;;;52.40;32.50;;;;;;;-7.48;100.00;98117.63;109502;1251;58954;-74
2024/01/17 04:12:07;;;;;;;48.10;31.80;;;;;;;-7.48;100.00;98120.55;109509;1251;59142;-73
2024/01/17 04:14:34;;;;;;;53.60;33.20;;;;;;;-7.46;100.00;98118.65;109276;1251;59547;-74
2024/01/17 04:17:00;;;;;;;51.40;32.60;;;;;;;-7.44;100.00;98109.66;109506;1251;59450;-73
2024/01/17 04:19:27;;;;;;;52.70;32.50;;;;;;;-7.42;100.00;98103.43;109513;1253;59308;-74
2024/01/17 04:21:57;;;;;;;52.50;32.10;;;;;;;-7.42;100.00;98096.17;109473;1252;59047;-74
2024/01/17 04:24:24;;;;;;;52.90;33.40;;;;;;;-7.41;100.00;98088.23;109453;1251;68164;-74
2024/01/17 04:26:54;;;;;;;54.80;33.40;;;;;;;-7.41;100.00;98089.61;109452;1251;72596;-73
2024/01/17 04:29:22;;;;;;;51.00;30.70;;;;;;;-7.41;100.00;98087.19;109408;1252;59071;-74
2024/01/17 04:31:49;;;;;;;53.00;33.90;;;;;;;-7.40;100.00;98075.45;109508;1251;61193;-75
2024/01/17 04:34:16;;;;;;;51.00;30.10;;;;;;;-7.38;100.00;98075.42;109494;1252;66734;-73
2024/01/17 04:36:43;;;;;;;50.80;29.90;;;;;;;-7.35;100.00;98074.71;109464;1251;69457;-74
2024/01/17 04:39:10;;;;;;;53.60;32.00;;;;;;;-7.34;100.00;98078.33;109480;1251;73985;-73
2024/01/17 04:41:36;;;;;;;53.10;32.30;;;;;;;-7.35;100.00;98077.63;108742;1251;1002308;-74
2024/01/17 04:44:05;;;;;;;54.90;32.50;;;;;;;-7.36;100.00;98073.33;108700;1251;1003003;-74
2024/01/17 04:46:32;;;;;;;50.50;29.40;;;;;;;-7.38;100.00;98065.95;109455;1251;67282;-73
2024/01/17 04:49:00;;;;;;;53.10;31.60;;;;;;;-7.39;100.00;98069.06;109421;1252;70207;-74
2024/01/17 04:51:27;;;;;;;57.50;34.60;;;;;;;-7.39;100.00;98065.10;109458;1251;65069;-73
2024/01/17 04:53:54;;;;;;;55.20;34.30;;;;;;;-7.41;100.00;98060.80;109492;1252;58949;-73
2024/01/17 04:56:20;;;;;;;60.40;35.60;;;;;;;-7.44;100.00;98052.55;109509;1253;58885;-74
2024/01/17 04:58:47;;;;;;;58.20;36.50;;;;;;;-7.50;100.00;98047.09;109464;1251;75814;-74
2024/01/17 05:01:13;;;;;;;52.90;33.40;;;;;;;-7.54;100.00;98042.30;108727;1251;1002327;-73
2024/01/17 05:03:43;;;;;;;59.80;34.80;;;;;;;-7.57;100.00;98040.94;109248;1251;59073;-74
2024/01/17 05:06:10;;;;;;;59.10;34.60;;;;;;;-7.60;100.00;98033.05;109516;1252;59524;-74
2024/01/17 05:08:36;;;;;;;59.80;36.30;;;;;;;-7.64;100.00;98028.96;109484;1251;60143;-74
2024/01/17 05:11:03;;;;;;;59.40;36.10;;;;;;;-7.66;100.00;98022.94;109446;1251;74405;-74
2024/01/17 05:13:29;;;;;;;57.90;35.80;;;;;;;-7.68;100.00;98022.09;109511;1251;61136;-75
2024/01/17 05:15:56;;;;;;;60.70;36.30;;;;;;;-7.69;100.00;98019.70;109441;1251;72415;-74
2024/01/17 05:18:23;;;;;;;59.20;35.90;;;;;;;-7.70;100.00;98023.14;109466;1255;60715;-74
2024/01/17 05:20:50;;;;;;;56.40;33.30;;;;;;;-7.69;100.00;98021.23;109450;1251;61240;-74
2024/01/17 05:23:16;;;;;;;54.90;34.50;;;;;;;-7.69;100.00;98017.95;109466;1253;66420;-74
2024/01/17 05:25:43;;;;;;;55.50;34.50;;;;;;;-7.67;100.00;98016.91;109467;1251;67840;-73
2024/01/17 05:28:09;;;;;;;69.30;40.90;;;;;;;-7.68;100.00;98008.98;108686;1252;1002906;-73
2024/01/17 05:30:36;;;;;;;63.50;37.60;;;;;;;-7.68;100.00;98011.92;108720;1252;1003165;-74
2024/01/17 05:33:03;;;;;;;70.30;41.80;;;;;;;-7.69;100.00;98010.03;108741;1251;1002217;-74
2024/01/17 05:35:30;;;;;;;63.70;41.30;;;;;;;-7.69;100.00;98010.55;109483;1251;67219;-73
2024/01/17 05:37:56;;;;;;;67.40;41.30;;;;;;;-7.70;100.00;97996.94;108694;1251;1003039;-74
2024/01/17 05:40:23;;;;;;;72.00;42.00;;;;;;;-7.71;100.00;97991.77;108727;1251;1002777;-74
2024/01/17 05:42:49;;;;;;;66.00;40.90;;;;;;;-7.72;100.00;97986.77;108710;1251;1002356;-73
2024/01/17 05:45:16;;;;;;;75.10;43.10;;;;;;;-7.74;100.00;97987.33;108679;1251;1002346;-74
2024/01/17 05:47:43;;;;;;;69.60;42.90;;;;;;;-7.75;100.00;97984.73;109442;1252;59061;-74
2024/01/17 05:50:11;;;;;;;69.30;42.90;;;;;;;-7.77;100.00;97982.52;109433;1257;59010;-74
2024/01/17 05:52:42;;;;;;;72.40;42.80;;;;;;;-7.80;100.00;97976.00;108689;1251;1002739;-74
2024/01/17 05:55:10;;;;;;;71.40;42.70;;;;;;;-7.82;100.00;97978.26;109428;1251;58970;-73
2024/01/17 05:57:37;;;;;;;72.60;42.60;;;;;;;-7.83;100.00;97982.75;108672;1255;1002391;-74
2024/01/17 06:00:07;;;;;;;71.00;42.10;;;;;;;-7.86;100.00;97981.05;109463;1251;65918;-75
2024/01/17 06:02:41;;;;;;;60.80;36.70;;;;;;;-7.88;100.00;97982.98;109449;1251;69675;-75
2024/01/17 06:05:08;;;;;;;68.30;40.90;;;;;;;-7.91;100.00;97980.08;109452;1252;63656;-75
2024/01/17 06:07:36;;;;;;;66.50;39.80;;;;;;;-7.92;100.00;97977.16;109317;1253;59867;-74
2024/01/17 06:10:03;;;;;;;71.30;40.00;;;;;;;-7.94;100.00;97969.94;108697;1251;1002923;-74
2024/01/17 06:12:29;;;;;;;69.20;39.30;;;;;;;-7.97;100.00;97969.95;109461;1251;75325;-73
2024/01/17 06:14:56;;;;;;;60.10;35.30;;;;;;;-7.99;100.00;97967.05;109357;1251;69619;-73
2024/01/17 06:17:22;;;;;;;60.60;35.40;;;;;;;-8.00;100.00;97968.96;109490;1251;71380;-74
2024/01/17 06:19:49;;;;;;;55.80;34.80;;;;;;;-8.01;100.00;97971.55;107597;1251;1002644;-74
2024/01/17 06:22:19;;;;;;;54.50;33.40;;;;;;;-8.00;100.00;97966.55;108493;1251;1002564;-74
2024/01/17 06:24:46;;;;;;;59.70;34.20;;;;;;;-7.97;100.00;97964.79;109451;1255;73002;-74
2024/01/17 06:27:14;;;;;;;67.00;38.00;;;;;;;-7.93;100.00;97965.45;108686;1251;1003218;-74
2024/01/17 06:29:44;;;;;;;59.90;34.30;;;;;;;-7.90;100.00;97964.02;109432;1255;73398;-74
2024/01/17 06:32:12;;;;;;;66.00;37.30;;;;;;;-7.88;100.00;97957.13;109385;1256;59407;-74
2024/01/17 06:34:39;;;;;;;65.10;37.40;;;;;;;-7.88;100.00;97954.88;108702;1251;1002357;-73
2024/01/17 06:37:06;;;;;;;63.10;38.30;;;;;;;-7.88;100.00;97951.26;109453;1255;75779;-73
2024/01/17 06:39:34;;;;;;;63.70;38.20;;;;;;;-7.86;100.00;97944.52;109474;1251;68918;-75
2024/01/17 06:42:01;;;;;;;64.20;35.60;;;;;;;-7.84;100.00;97943.80;109397;1251;65226;-74
2024/01/17 06:44:28;;;;;;;62.60;35.80;;;;;;;-7.82;100.00;97937.06;108635;1251;1002104;-74
2024/01/17 06:46:58;;;;;;;64.80;37.60;;;;;;;-7.79;100.00;97937.88;109488;1251;61540;-75
2024/01/17 06:49:25;;;;;;;66.70;37.70;;;;;;;-7.76;100.00;97935.79;109517;1251;67018;-73
2024/01/17 06:51:52;;;;;;;62.30;36.50;;;;;;;-7.74;100.00;97933.52;107909;1251;1002511;-73
2024/01/17 06:54:19;;;;;;;59.70;36.80;;;;;;;-7.71;100.00;97933.83;108667;1251;1002325;-74
2024/01/17 06:56:45;;;;;;;63.20;36.20;;;;;;;-7.66;100.00;97924.30;108678;1251;1015241;-74
2024/01/17 06:59:12;;;;;;;67.20;39.10;;;;;;;-7.62;100.00;97925.46;109452;1251;61478;-74
2024/01/17 07:01:39;;;;;;;60.40;39.50;;;;;;;-7.60;100.00;97923.54;109484;1251;74533;-74
2024/01/17 07:04:07;;;;;;;67.30;39.50;;;;;;;-7.56;100.00;97920.73;109448;1251;67410;-74
2024/01/17 07:06:33;;;;;;;57.90;36.10;;;;;;;-7.53;100.00;97919.65;108681;1251;1002357;-74
2024/01/17 07:09:00;;;;;;;66.50;41.20;;;;;;;-7.51;100.00;97915.83;108646;1251;1002485;-74
2024/01/17 07:11:26;;;;;;;76.00;42.90;;;;;;;-7.47;100.00;97912.85;109440;1251;59028;-74
2024/01/17 07:13:53;;;;;;;66.00;39.40;;;;;;;-7.44;100.00;97910.40;109297;1251;59111;-74
2024/01/17 07:16:20;;;;;;;69.40;42.10;;;;;;;-7.40;100.00;97908.98;109457;1251;58952;-74
2024/01/17 07:18:46;;;;;;;74.40;43.10;;;;;;;-7.38;100.00;97904.11;109460;1251;59322;-74
2024/01/17 07:21:13;;;;;;;74.30;43.20;;;;;;;-7.34;100.00;97902.34;109441;1251;59096;-74
2024/01/17 07:23:41;;;;;;;67.00;41.60;;;;;;;-7.28;100.00;97889.67;109435;1251;61530;-74
2024/01/17 07:26:08;;;;;;;62.20;39.50;;;;;;;-7.25;100.00;97884.79;108197;1257;1002644;-73
2024/01/17 07:28:35;;;;;;;68.10;40.80;;;;;;;-7.21;100.00;97877.14;108315;1256;1002611;-74
2024/01/17 07:31:01;;;;;;;61.60;40.10;;;;;;;-7.19;100.00;97877.79;109064;1257;72778;-74
2024/01/17 07:33:28;;;;;;;63.80;40.40;;;;;;;-7.15;100.00;97871.88;109028;1256;59490;-73
2024/01/17 07:35:54;;;;;;;65.80;41.30;;;;;;;-7.11;100.00;97872.67;109076;1256;61190;-73
2024/01/17 07:38:22;;;;;;;63.90;39.20;;;;;;;-7.07;100.00;97866.93;109060;1258;74478;-74
2024/01/17 07:40:49;;;;;;;63.90;38.10;;;;;;;-7.00;100.00;97858.55;109075;1257;69860;-75
2024/01/17 07:43:17;;;;;;;61.80;40.20;;;;;;;-6.95;100.00;97855.86;109083;1256;73862;-73
2024/01/17 07:45:43;;;;;;;65.80;40.50;;;;;;;-6.90;100.00;97856.83;109028;1256;60569;-74
2024/01/17 07:48:11;;;;;;;66.80;41.40;;;;;;;-6.83;100.00;97853.09;109044;1260;60313;-74
2024/01/17 07:50:39;;;;;;;58.40;38.40;;;;;;;-6.78;100.00;97846.28;108299;1257;1002405;-74
2024/01/17 07:53:07;;;;;;;61.10;39.10;;;;;;;-6.73;100.00;97846.54;109057;1256;68988;-74
2024/01/17 07:55:34;;;;;;;63.70;39.90;;;;;;;-6.68;100.00;97844.21;108288;1257;1002839;-74
2024/01/17 07:58:01;;;;;;;57.60;35.70;;;;;;;-6.61;100.00;97840.28;109337;1251;59219;-74
2024/01/17 08:00:28;;;;;;;63.10;37.70;;;;;;;-6.54;100.00;97834.81;108674;1251;1002376;-74
2024/01/17 08:02:55;;;;;;;63.50;38.00;;;;;;;-6.49;100.00;97835.77;109462;1251;74921;-73
2024/01/17 08:05:22;;;;;;;53.50;35.80;;;;;;;-6.42;100.00;97834.79;109421;1251;68789;-75
2024/01/17 08:07:48;;;;;;;56.90;35.80;;;;;;;-6.40;100.00;97820.56;109428;1251;73835;-72
2024/01/17 08:10:16;;;;;;;56.30;35.40;;;;;;;-6.38;100.00;97820.02;108312;1251;1002697;-74
2024/01/17 08:12:44;;;;;;;64.50;41.60;;;;;;;-6.32;100.00;97816.27;109242;1251;59310;-74
2024/01/17 08:15:11;;;;;;;70.10;41.10;;;;;;;-6.23;100.00;97813.17;109463;1251;75631;-74
2024/01/17 08:17:37;;;;;;;55.20;34.10;;;;;;;-6.15;100.00;97806.98;109463;1251;69838;-73
2024/01/17 08:20:06;;;;;;;58.50;34.20;;;;;;;-6.12;100.00;97797.39;109428;1251;65052;-74
2024/01/17 08:22:34;;;;;;;59.60;36.00;;;;;;;-6.09;100.00;97795.60;109239;1251;59051;-74
2024/01/17 08:25:01;;;;;;;52.50;31.90;;;;;;;-6.03;100.00;97792.38;109502;1251;58895;-74
2024/01/17 08:27:28;;;;;;;52.40;34.20;;;;;;;-5.93;100.00;97783.36;109453;1251;74585;-74
2024/01/17 08:29:54;;;;;;;56.40;32.50;;;;;;;-5.88;100.00;97772.15;109489;1251;61349;-74
2024/01/17 08:32:21;;;;;;;71.00;44.60;;;;;;;-5.81;100.00;97767.52;109461;1251;73735;-74
2024/01/17 08:34:47;;;;;;;49.60;32.70;;;;;;;-5.74;100.00;97758.70;109426;1251;59652;-75
2024/01/17 08:37:14;;;;;;;56.90;33.90;;;;;;;-5.68;100.00;97750.98;109442;1251;58901;-74
2024/01/17 08:39:43;;;;;;;50.40;32.30;;;;;;;-5.61;100.00;97751.67;109488;1251;66201;-74
2024/01/17 08:42:11;;;;;;;56.10;34.40;;;;;;;-5.54;100.00;97753.77;108696;1252;1002125;-74
2024/01/17 08:44:42;;;;;;;51.60;33.30;;;;;;;-5.49;100.00;97752.79;109448;1251;73044;-73
2024/01/17 08:47:09;;;;;;;53.10;34.10;;;;;;;-5.40;100.00;97748.08;109439;1251;59034;-75
2024/01/17 08:49:39;;;;;;;53.80;34.00;;;;;;;-5.31;100.00;97742.34;108701;1251;1002407;-74
2024/01/17 08:52:06;;;;;;;;;;;;;;;-5.24;100.00;97744.24;109475;1251;67026;-74
2024/01/17 08:54:33;;;;;;;54.50;33.50;;;;;;;-5.22;100.00;97743.33;109456;1251;61036;-73
2024/01/17 08:56:59;;;;;;;51.70;33.10;;;;;;;-5.20;100.00;97741.73;109475;1251;71502;-74
2024/01/17 08:59:26;;;;;;;47.10;30.30;;;;;;;-5.16;100.00;97735.91;109460;1251;59057;-74
2024/01/17 09:01:53;;;;;;;49.30;29.40;;;;;;;-5.11;100.00;97730.77;109469;1251;59055;-74
2024/01/17 09:04:19;;;;;;;46.90;29.80;;;;;;;-5.05;100.00;97719.71;109446;1251;67226;-74
2024/01/17 09:06:46;;;;;;;44.90;27.60;;;;;;;-4.97;100.00;97715.71;109518;1251;60051;-73
2024/01/17 09:09:12;;;;;;;43.90;28.20;;;;;;;-4.92;100.00;97710.38;109453;1251;65028;-74
2024/01/17 09:11:39;;;;;;;50.20;30.90;;;;;;;-4.87;100.00;97710.43;109456;1251;59058;-73
2024/01/17 09:14:06;;;;;;;58.60;32.80;;;;;;;-4.79;100.00;97710.40;109427;1251;59044;-73
2024/01/17 09:16:33;;;;;;;58.00;35.80;;;;;;;-4.71;100.00;97708.98;109450;1251;67417;-74
2024/01/17 09:19:00;;;;;;;47.10;30.20;;;;;;;-4.60;100.00;97707.65;109458;1251;60253;-74
2024/01/17 09:21:28;;;;;;;51.50;32.80;;;;;;;-4.47;100.00;97698.77;109447;1251;73667;-75
2024/01/17 09:23:55;;;;;;;56.80;35.50;;;;;;;-4.38;100.00;97693.00;108667;1251;1003092;-75
2024/01/17 09:26:21;;;;;;;48.50;32.80;;;;;;;-4.28;100.00;97685.08;108704;1251;1002211;-75
2024/01/17 09:28:48;;;;;;;49.70;30.30;;;;;;;-4.19;100.00;97679.10;109466;1251;75870;-75
2024/01/17 09:31:14;;;;;;;53.00;31.10;;;;;;;-4.12;100.00;97673.50;109447;1251;61065;-74
2024/01/17 09:33:41;;;;;;;51.20;32.50;;;;;;;-4.08;100.00;97673.02;109467;1251;64194;-74
2024/01/17 09:36:08;;;;;;;54.10;31.60;;;;;;;-4.01;100.00;97664.17;109418;1251;59051;-74
2024/01/17 09:38:35;;;;;;;55.50;30.60;;;;;;;-3.95;100.00;97657.23;109289;1251;59083;-73
2024/01/17 09:41:01;;;;;;;57.40;33.60;;;;;;;-3.89;100.00;97646.48;109427;1251;66155;-74
2024/01/17 09:43:28;;;;;;;52.50;33.00;;;;;;;-3.81;100.00;97639.42;109468;1251;60011;-75
2024/01/17 09:45:58;;;;;;;53.40;33.30;;;;;;;-3.68;100.00;97638.15;109474;1251;64939;-75
2024/01/17 09:48:25;;;;;;;51.50;31.80;;;;;;;-3.59;100.00;97634.23;109257;1251;58945;-73
2024/01/17 09:50:52;;;;;;;45.30;30.90;;;;;;;-3.50;100.00;97628.91;109178;1251;59001;-75
2024/01/17 09:53:27;;;;;;;45.30;28.50;;;;;;;-3.43;100.00;97620.35;108697;1251;1002490;-75
2024/01/17 09:55:59;;;;;;;38.00;26.20;;;;;;;-3.39;100.00;97609.27;109484;1251;61203;-76
2024/01/17 09:58:32;;;;;;;42.20;28.20;;;;;;;-3.29;100.00;97603.39;109428;1251;64079;-74
2024/01/17 10:01:01;;;;;;;39.80;26.10;;;;;;;-3.16;100.00;97600.86;109331;1251;120349;-74
2024/01/17 10:03:30;;;;;;;42.30;25.80;;;;;;;-3.06;100.00;97592.35;109369;1251;58932;-74
2024/01/17 10:05:56;;;;;;;41.70;25.20;;;;;;;-2.97;100.00;97579.70;109454;1251;67178;-74
2024/01/17 10:08:24;;;;;;;42.80;26.50;;;;;;;-2.89;100.00;97573.85;109450;1251;61083;-74
2024/01/17 10:10:51;;;;;;;43.40;27.00;;;;;;;-2.77;100.00;97578.30;109454;1251;63710;-74
2024/01/17 10:13:18;;;;;;;37.60;26.40;;;;;;;-2.69;100.00;97564.77;109516;1251;58976;-74
2024/01/17 10:15:47;;;;;;;40.50;26.20;;;;;;;-2.63;100.00;97567.00;109464;1251;59111;-74
2024/01/17 10:18:15;;;;;;;40.40;25.50;;;;;;;-2.56;100.00;97566.89;109463;1251;74218;-75
2024/01/17 10:20:42;;;;;;;69.00;38.50;;;;;;;-2.50;100.00;97556.92;108700;1251;1002975;-74
2024/01/17 10:23:08;;;;;;;84.90;46.80;;;;;;;-2.44;100.00;97557.58;109493;1251;64022;-74
2024/01/17 10:25:40;;;;;;;55.00;36.80;;;;;;;-2.37;100.00;97552.80;109428;1251;59788;-74
2024/01/17 10:28:08;;;;;;;41.10;26.90;;;;;;;-2.30;100.00;97540.34;109500;1251;59008;-75
2024/01/17 10:30:39;;;;;;;47.70;35.00;;;;;;;-2.25;100.00;97536.15;109384;1251;64925;-74
2024/01/17 10:33:08;;;;;;;54.40;37.10;;;;;;;-2.15;100.00;97531.25;109470;1251;60021;-74
2024/01/17 10:35:35;;;;;;;41.40;28.90;;;;;;;-2.02;100.00;97529.16;109480;1251;64022;-73
2024/01/17 10:38:03;;;;;;;37.00;24.00;;;;;;;-1.91;100.00;97523.13;109459;1251;58952;-74
2024/01/17 10:40:30;;;;;;;41.00;26.60;;;;;;;-1.80;100.00;97516.09;109442;1251;58988;-74
2024/01/17 10:43:10;;;;;;;34.00;23.00;;;;;;;-1.65;100.00;97505.89;109501;1251;66236;-75
2024/01/17 10:45:39;;;;;;;32.60;23.20;;;;;;;-1.46;100.00;97497.43;109422;1251;61369;-74
2024/01/17 10:48:09;;;;;;;34.80;24.40;;;;;;;-1.30;100.00;97486.80;109489;1251;64152;-74
2024/01/17 10:50:36;;;;;;;34.60;22.90;;;;;;;-1.15;100.00;97482.66;109457;1251;58993;-74
2024/01/17 10:53:05;;;;;;;38.60;25.00;;;;;;;-1.03;100.00;97474.11;109459;1251;58953;-74
2024/01/17 10:55:36;;;;;;;38.10;25.50;;;;;;;-0.89;100.00;97474.00;108664;1251;1003397;-74
2024/01/17 10:58:09;;;;;;;34.20;24.30;;;;;;;-0.78;100.00;97471.60;109368;1251;60171;-74